Time;durP1;ratioP1;P1;durP2;ratioP2;P2;SDS_P1;SDS_P2;PMS_P1;PMS_P2;Temp;Humidity;BMP_temperature;BMP_pressure;BME280_temperature;BME280_humidity;BME280_pressure;Samples;Min_cycle;Max_cycle;Signal;HPM_P1;HPM_P2
2024/02/15 00:02:20;;;;;;;;;;;12.00;99.90;;;;;;6650555;88;20598;-77
2024/02/15 00:12:20;;;;;;;;;;;12.10;99.90;;;;;;6649146;89;20512;-78
2024/02/15 00:22:21;;;;;;;;;;;12.10;99.90;;;;;;6689306;88;20500;-78
2024/02/15 00:32:21;;;;;;;;;;;12.20;99.90;;;;;;6736551;88;20057;-78
2024/02/15 00:42:22;;;;;;;;;;;12.10;99.90;;;;;;6736225;88;20084;-78
2024/02/15 00:52:23;;;;;;;;;;;12.20;99.90;;;;;;6733091;88;20079;-78
2024/02/15 01:02:23;;;;;;;;;;;12.10;99.90;;;;;;6736130;88;20521;-77
2024/02/15 01:12:24;;;;;;;;;;;11.90;99.90;;;;;;6735881;88;20057;-78
2024/02/15 01:22:26;;;;;;;;;;;11.70;99.90;;;;;;6736568;88;20061;-78
2024/02/15 01:32:27;;;;;;;;;;;11.80;99.90;;;;;;6739107;88;20112;-77
2024/02/15 01:42:27;;;;;;;;;;;11.90;99.90;;;;;;6738979;88;20140;-77
2024/02/15 01:52:28;;;;;;;;;;;11.90;99.90;;;;;;6736508;88;20076;-78
2024/02/15 02:02:31;;;;;;;;;;;12.00;99.90;;;;;;6739077;88;20104;-78
2024/02/15 02:12:31;;;;;;;;;;;12.10;99.90;;;;;;6739859;88;20510;-78
2024/02/15 02:22:32;;;;;;;;;;;12.20;99.90;;;;;;6741305;88;20057;-78
2024/02/15 02:32:34;;;;;;;;;;;12.30;99.90;;;;;;6739389;88;20049;-78
2024/02/15 02:43:00;;;;;;;;;;;12.30;99.90;;;;;;6739234;88;20054;-78
2024/02/15 02:53:01;;;;;;;;;;;12.30;99.90;;;;;;6738923;88;20046;-78
2024/02/15 03:03:01;;;;;;;;;;;12.40;99.90;;;;;;6739213;88;20124;-78
2024/02/15 03:13:04;;;;;;;;;;;12.30;99.90;;;;;;6741055;88;20079;-78
2024/02/15 03:23:05;;;;;;;;;;;12.40;99.90;;;;;;6738720;88;20566;-78
2024/02/15 03:33:06;;;;;;;;;;;12.40;99.90;;;;;;6651240;88;20196;-78
2024/02/15 03:43:07;;;;;;;;;;;12.20;99.90;;;;;;6651140;88;20225;-78
2024/02/15 03:53:09;;;;;;;;;;;12.40;99.90;;;;;;6656417;89;20088;-78
2024/02/15 04:03:09;;;;;;;;;;;12.40;99.90;;;;;;6661913;89;20070;-78
2024/02/15 04:13:10;;;;;;;;;;;12.40;99.90;;;;;;6651870;89;20078;-78
2024/02/15 04:23:11;;;;;;;;;;;11.90;99.90;;;;;;6652623;88;20175;-79
2024/02/15 04:33:12;;;;;;;;;;;11.60;99.90;;;;;;6652854;89;20071;-77
2024/02/15 04:43:15;;;;;;;;;;;11.60;99.90;;;;;;6655689;89;20105;-77
2024/02/15 04:53:16;;;;;;;;;;;11.50;99.90;;;;;;6651945;88;20123;-78
2024/02/15 05:03:17;;;;;;;;;;;11.50;99.90;;;;;;6651973;89;20200;-77
2024/02/15 05:13:18;;;;;;;;;;;11.70;99.90;;;;;;6654985;88;20045;-76
2024/02/15 05:23:18;;;;;;;;;;;11.80;99.90;;;;;;6667742;78;20548;-79
2024/02/15 05:33:19;;;;;;;;;;;11.70;99.90;;;;;;6690938;88;20061;-79
2024/02/15 05:43:20;;;;;;;;;;;11.70;99.90;;;;;;6710136;87;20541;-79
2024/02/15 05:53:20;;;;;;;;;;;11.70;99.90;;;;;;6670623;88;20084;-79
2024/02/15 06:03:26;;;;;;;;;;;11.70;99.90;;;;;;6666835;89;20592;-79
2024/02/15 06:13:27;;;;;;;;;;;11.70;99.90;;;;;;6684206;88;20053;-79
2024/02/15 06:23:27;;;;;;;;;;;11.70;99.90;;;;;;6684462;88;20117;-78
2024/02/15 06:43:55;;;;;;;;;;;11.70;99.90;;;;;;6736669;88;20066;-78
2024/02/15 06:53:55;;;;;;;;;;;11.70;99.90;;;;;;6744762;88;20058;-78
2024/02/15 07:03:56;;;;;;;;;;;11.70;99.90;;;;;;6738841;88;20088;-78
2024/02/15 07:13:56;;;;;;;;;;;11.70;99.90;;;;;;6741911;88;20061;-78
2024/02/15 07:23:57;;;;;;;;;;;11.70;99.90;;;;;;6736402;88;20705;-79
2024/02/15 07:33:58;;;;;;;;;;;11.70;99.90;;;;;;6744238;88;20054;-77
2024/02/15 07:43:58;;;;;;;;;;;11.70;99.90;;;;;;6746781;87;20070;-77
2024/02/15 07:54:01;;;;;;;;;;;11.70;99.90;;;;;;6738552;88;20047;-78
2024/02/15 08:04:01;;;;;;;;;;;11.60;99.90;;;;;;6741257;88;20629;-77
2024/02/15 08:14:02;;;;;;;;;;;11.60;99.90;;;;;;6744416;88;20057;-78
2024/02/15 08:24:05;;;;;;;;;;;11.70;99.90;;;;;;6726636;88;20193;-77
2024/02/15 08:34:05;;;;;;;;;;;11.90;99.90;;;;;;6677313;88;21221;-77
2024/02/15 08:44:11;;;;;;;;;;;11.90;99.90;;;;;;6678638;88;20069;-78
2024/02/15 08:54:11;;;;;;;;;;;12.00;99.90;;;;;;6703679;88;20117;-78
2024/02/15 09:04:12;;;;;;;;;;;12.10;99.90;;;;;;6672528;88;20142;-78
2024/02/15 09:14:13;;;;;;;;;;;12.30;99.90;;;;;;6674824;88;20766;-78
2024/02/15 09:24:16;;;;;;;;;;;12.50;99.90;;;;;;6700105;88;20615;-77
2024/02/15 09:34:16;;;;;;;;;;;12.60;99.90;;;;;;6738226;88;20546;-78
2024/02/15 09:44:16;;;;;;;;;;;12.80;99.90;;;;;;6738898;88;20051;-78
2024/02/15 09:54:22;;;;;;;;;;;13.00;99.90;;;;;;6740123;88;20514;-77
2024/02/15 10:04:22;;;;;;;;;;;13.40;99.90;;;;;;6735819;88;20096;-77
2024/02/15 10:14:23;;;;;;;;;;;14.00;99.90;;;;;;6741946;88;20149;-77
2024/02/15 10:24:24;;;;;;;;;;;14.10;99.90;;;;;;6731180;87;20098;-78
2024/02/15 10:34:28;;;;;;;;;;;14.50;99.90;;;;;;6684887;88;20064;-78
2024/02/15 10:44:28;;;;;;;;;;;14.30;99.90;;;;;;6695710;88;20564;-78
2024/02/15 10:54:51;;;;;;;;;;;14.30;99.90;;;;;;6689280;88;20044;-78
2024/02/15 11:04:56;;;;;;;;;;;14.30;99.90;;;;;;6684380;88;20218;-78
2024/02/15 11:14:57;;;;;;;;;;;14.40;99.90;;;;;;6677629;88;20053;-78
2024/02/15 11:24:58;;;;;;;;;;;14.70;99.90;;;;;;6707781;88;20533;-78
2024/02/15 11:35:11;;;;;;;;;;;15.10;99.90;;;;;;6745995;88;20101;-78
2024/02/15 11:45:12;;;;;;;;;;;15.30;99.90;;;;;;6717298;77;20085;-79
2024/02/15 11:55:13;;;;;;;;;;;15.20;99.90;;;;;;6656466;88;20532;-79
2024/02/15 12:25:52;;;;;;;;;;;15.50;99.90;;;;;;6655473;88;20620;-79
2024/02/15 12:36:03;;;;;;;;;;;15.60;99.90;;;;;;6659606;88;20076;-81
2024/02/15 12:46:05;;;;;;;;;;;15.80;99.90;;;;;;6652890;88;20066;-78
2024/02/15 12:56:06;;;;;;;;;;;16.20;99.90;;;;;;6643400;88;20059;-77
2024/02/15 13:06:07;;;;;;;;;;;16.70;99.90;;;;;;6635416;88;20070;-79
2024/02/15 13:16:08;;;;;;;;;;;16.70;99.90;;;;;;6656897;88;20100;-78
2024/02/15 13:26:11;;;;;;;;;;;16.60;99.90;;;;;;6692690;88;20212;-80
2024/02/15 13:36:12;;;;;;;;;;;16.30;99.90;;;;;;6662134;88;20087;-78
2024/02/15 13:46:13;;;;;;;;;;;16.30;99.90;;;;;;6644905;88;20125;-78
2024/02/15 13:56:16;;;;;;;;;;;16.10;99.90;;;;;;6682510;88;20460;-78
2024/02/15 14:06:19;;;;;;;;;;;16.00;99.90;;;;;;6719810;88;20101;-80
2024/02/15 14:16:20;;;;;;;;;;;16.10;99.90;;;;;;6721147;88;20083;-79
2024/02/15 14:26:24;;;;;;;;;;;16.20;99.90;;;;;;6719723;88;20193;-79
2024/02/15 14:36:26;;;;;;;;;;;16.20;99.90;;;;;;6715011;88;20100;-78
2024/02/15 14:46:27;;;;;;;;;;;16.10;99.90;;;;;;6716329;88;20191;-78
2024/02/15 14:56:28;;;;;;;;;;;16.10;99.90;;;;;;6716484;88;20075;-75
2024/02/15 15:16:48;;;;;;;;;;;15.80;99.90;;;;;;6716198;88;20156;-79
2024/02/15 15:26:49;;;;;;;;;;;15.70;99.90;;;;;;6721574;88;20169;-79
2024/02/15 15:36:49;;;;;;;;;;;15.60;99.90;;;;;;6724297;88;20560;-78
2024/02/15 15:46:50;;;;;;;;;;;15.50;99.90;;;;;;6718664;88;20089;-78
2024/02/15 15:56:51;;;;;;;;;;;15.50;99.90;;;;;;6724877;88;20375;-78
2024/02/15 16:06:53;;;;;;;;;;;15.50;99.90;;;;;;6722346;88;20549;-84
2024/02/15 16:16:54;;;;;;;;;;;15.40;99.90;;;;;;6727411;88;20067;-81
2024/02/15 16:26:58;;;;;;;;;;;15.30;99.90;;;;;;6722632;88;20066;-79
2024/02/15 16:36:58;;;;;;;;;;;15.20;99.90;;;;;;6704959;88;20137;-81
2024/02/15 16:46:58;;;;;;;;;;;15.00;99.90;;;;;;6724600;88;20055;-80
2024/02/15 16:56:59;;;;;;;;;;;14.90;99.90;;;;;;6722228;88;20079;-79
2024/02/15 17:06:59;;;;;;;;;;;14.60;99.90;;;;;;6728613;88;20091;-80
2024/02/15 17:17:00;;;;;;;;;;;14.50;99.90;;;;;;6734527;88;20521;-80
2024/02/15 17:27:00;;;;;;;;;;;14.40;99.90;;;;;;6733801;88;20033;-82
2024/02/15 17:37:01;;;;;;;;;;;14.30;99.90;;;;;;6730787;88;20097;-80
2024/02/15 17:47:01;;;;;;;;;;;14.10;99.90;;;;;;6733453;88;20085;-80
2024/02/15 17:57:02;;;;;;;;;;;14.00;99.90;;;;;;6715864;88;20166;-80
2024/02/15 18:07:02;;;;;;;;;;;13.90;99.90;;;;;;6735867;88;20572;-80
2024/02/15 18:17:04;;;;;;;;;;;13.80;99.90;;;;;;6723339;88;20059;-80
2024/02/15 18:27:04;;;;;;;;;;;13.70;99.90;;;;;;6711835;88;20055;-76
2024/02/15 18:37:06;;;;;;;;;;;13.60;99.90;;;;;;6741727;77;20069;-78
2024/02/15 18:47:08;;;;;;;;;;;13.50;99.90;;;;;;6738196;88;20630;-78
2024/02/15 18:57:09;;;;;;;;;;;13.50;99.90;;;;;;6734366;88;20506;-77
2024/02/15 19:07:11;;;;;;;;;;;13.50;99.90;;;;;;6732475;88;20176;-75
2024/02/15 19:17:11;;;;;;;;;;;13.50;99.90;;;;;;6732567;88;20102;-77
2024/02/15 19:27:11;;;;;;;;;;;13.60;99.90;;;;;;6736113;88;20821;-78
2024/02/15 19:47:00;;;;;;;;;;;13.50;99.90;;;;;;6787580;86;20096;-79
2024/02/15 19:57:01;;;;;;;;;;;13.60;99.90;;;;;;6783593;87;20176;-76
2024/02/15 20:07:02;;;;;;;;;;;13.40;99.90;;;;;;6775771;87;20658;-77
2024/02/15 20:17:02;;;;;;;;;;;13.40;99.90;;;;;;6773303;87;20229;-77
2024/02/15 20:27:03;;;;;;;;;;;13.30;99.90;;;;;;6781088;87;20097;-77
2024/02/15 20:37:04;;;;;;;;;;;13.20;99.90;;;;;;6779970;87;20092;-77
2024/02/15 20:47:11;;;;;;;;;;;13.20;99.90;;;;;;6748993;87;20063;-77
2024/02/15 20:57:16;;;;;;;;;;;13.20;99.90;;;;;;6730937;88;21259;-77
2024/02/15 21:07:16;;;;;;;;;;;13.10;99.90;;;;;;6727928;88;20072;-76
2024/02/15 21:17:17;;;;;;;;;;;13.10;99.90;;;;;;6727874;88;20062;-76
2024/02/15 21:27:17;;;;;;;;;;;13.00;99.90;;;;;;6731487;88;20103;-76
2024/02/15 21:37:23;;;;;;;;;;;13.00;99.90;;;;;;6730770;87;20679;-77
2024/02/15 21:47:24;;;;;;;;;;;12.90;99.90;;;;;;6766246;87;20054;-76
2024/02/15 21:57:24;;;;;;;;;;;12.90;99.90;;;;;;6765072;87;20256;-76
2024/02/15 22:07:25;;;;;;;;;;;12.80;99.90;;;;;;6763994;87;20194;-76
2024/02/15 22:17:26;;;;;;;;;;;12.70;99.90;;;;;;6757783;87;20056;-77
2024/02/15 22:27:27;;;;;;;;;;;12.70;99.90;;;;;;6769058;87;20092;-77
2024/02/15 22:37:27;;;;;;;;;;;12.70;99.90;;;;;;6761602;87;20266;-76
2024/02/15 22:47:28;;;;;;;;;;;12.70;99.90;;;;;;6763075;87;20536;-76
2024/02/15 22:57:29;;;;;;;;;;;12.60;99.90;;;;;;6763448;87;20082;-76
2024/02/15 23:07:29;;;;;;;;;;;12.60;99.90;;;;;;6766619;87;20075;-77
2024/02/15 23:17:30;;;;;;;;;;;12.50;99.90;;;;;;6762306;87;20079;-77
2024/02/15 23:27:31;;;;;;;;;;;12.50;99.90;;;;;;6760536;87;20074;-77
2024/02/15 23:47:50;;;;;;;;;;;12.70;99.90;;;;;;6763084;87;20049;-76
2024/02/15 23:57:51;;;;;;;;;;;12.70;99.90;;;;;;6759804;87;20518;-77
